PWSweather.com
Personal Weather Stations
Station Observations
TARRYHILL
Tarrytown, NY 10591

Tarrytown, NY 10591

Lat: 41.05185, Lon: -73.85296

Elevation: 341

Station Type: Davis Vantage Vue

Latest ConditionsUpdated 12:00:00 PM EST Monday, Jan 21, 2019
Currently Today's Max Today's Min Today's Average
Temperature 6.6°F-14.1°C 10.1°F-12.2°C 0.9°F-17.3°C 4.8°F-15.1°C
Dew Point -2.7°F-19.3°C 2.4°F-16.4°C -8.1°F-22.3°C -3.8°F-19.9°C
Winds 2.3 mph W3.7 kmh W 9.2 mph -14.8 kmh - - 4.6 mph 7.4 kmh
Wind Gusts 3.5 mph5.6 kmh 20.7 mph33.3 kmh - -
Humidity 65% 71% 63% 67%
Pressure 30.07 in1018.3 mb 30.07 in1018.3 mb 29.78 in1008.5 mb -
Hour Temp Dew Point Humidity Winds Wind Gusts Pressure Precip Precip Rate Daily Precip Total
12:00 PM 6.6°F-14.1°C -2.7°F-19.3°C 65% 2.3 mph W3.7 kmh W 3.5 mph5.6 kmh 30.07 in1018.3 mb - 0.00 in0.0 mm 0.00 in0.0 mm
11:30 AM 6.5°F-14.2°C -2.8°F-19.3°C 65% 2.3 mph WSW3.7 kmh WSW 13.8 mph22.2 kmh 30.07 in1018.3 mb - 0.00 in0.0 mm 0.00 in0.0 mm
11:00 AM 4.9°F-15.1°C -4.6°F-20.3°C 64% 5.8 mph WNW9.3 kmh WNW 9.2 mph14.8 kmh 30.07 in1018.3 mb - 0.00 in0.0 mm 0.00 in0.0 mm
10:30 AM 4.3°F-15.4°C -5.5°F-20.8°C 63% 4.6 mph NNE7.4 kmh NNE 11.5 mph18.5 kmh 30.06 in1017.9 mb - 0.00 in0.0 mm 0.00 in0.0 mm
10:00 AM 3.5°F-15.8°C -6.0°F-21.1°C 64% 2.3 mph NE3.7 kmh NE 5.8 mph9.3 kmh 30.05 in1017.6 mb - 0.00 in0.0 mm 0.00 in0.0 mm
09:30 AM 2.3°F-16.5°C -6.8°F-21.6°C 65% 3.5 mph E5.6 kmh E 8.1 mph13.0 kmh 30.03 in1016.9 mb - 0.00 in0.0 mm 0.00 in0.0 mm
09:00 AM 1.1°F-17.2°C -7.9°F-22.2°C 65% 8.1 mph SW13.0 kmh SW 15.0 mph24.1 kmh 30.02 in1016.6 mb - 0.00 in0.0 mm 0.00 in0.0 mm
08:30 AM 0.9°F-17.3°C -8.1°F-22.3°C 65% 6.9 mph S11.1 kmh S 11.5 mph18.5 kmh 30.01 in1016.3 mb - 0.00 in0.0 mm 0.00 in0.0 mm
08:00 AM 1.2°F-17.1°C -7.2°F-21.8°C 67% 6.9 mph W11.1 kmh W 16.1 mph25.9 kmh 30.00 in1015.9 mb - 0.00 in0.0 mm 0.00 in0.0 mm
07:30 AM 1.5°F-16.9°C -7.2°F-21.8°C 66% 2.3 mph W3.7 kmh W 10.4 mph16.7 kmh 29.98 in1015.2 mb - 0.00 in0.0 mm 0.00 in0.0 mm
07:00 AM 2.0°F-16.7°C -6.8°F-21.6°C 66% 3.5 mph NNW5.6 kmh NNW 10.4 mph16.7 kmh 29.96 in1014.6 mb - 0.00 in0.0 mm 0.00 in0.0 mm
06:30 AM 2.8°F-16.2°C -5.4°F-20.8°C 68% 3.5 mph SSW5.6 kmh SSW 9.2 mph14.8 kmh 29.94 in1013.9 mb - 0.00 in0.0 mm 0.00 in0.0 mm
06:00 AM 3.4°F-15.9°C -4.8°F-20.4°C 68% 5.8 mph SW9.3 kmh SW 15.0 mph24.1 kmh 29.93 in1013.5 mb - 0.00 in0.0 mm 0.00 in0.0 mm
05:30 AM 3.9°F-15.6°C -3.4°F-19.7°C 71% 3.5 mph N5.6 kmh N 8.1 mph13.0 kmh 29.92 in1013.2 mb - 0.00 in0.0 mm 0.00 in0.0 mm
05:00 AM 3.9°F-15.6°C -3.7°F-19.8°C 70% 2.3 mph N3.7 kmh N 11.5 mph18.5 kmh 29.91 in1012.9 mb - 0.00 in0.0 mm 0.00 in0.0 mm
04:30 AM 4.2°F-15.4°C -4.0°F-20.0°C 68% 5.8 mph W9.3 kmh W 8.1 mph13.0 kmh 29.89 in1012.2 mb - 0.00 in0.0 mm 0.00 in0.0 mm
04:00 AM 4.6°F-15.2°C -4.2°F-20.1°C 66% 6.9 mph W11.1 kmh W 20.7 mph33.3 kmh 29.89 in1012.2 mb - 0.00 in0.0 mm 0.00 in0.0 mm
03:30 AM 5.1°F-14.9°C -3.2°F-19.6°C 68% 1.2 mph S1.9 kmh S 9.2 mph14.8 kmh 29.88 in1011.9 mb - 0.00 in0.0 mm 0.00 in0.0 mm
03:00 AM 5.5°F-14.7°C -3.1°F-19.5°C 67% 1.2 mph SE1.9 kmh SE 2.3 mph3.7 kmh 29.87 in1011.5 mb - 0.00 in0.0 mm 0.00 in0.0 mm
02:30 AM 6.3°F-14.3°C -2.3°F-19.1°C 67% 8.1 mph WSW13.0 kmh WSW 11.5 mph18.5 kmh 29.86 in1011.2 mb - 0.00 in0.0 mm 0.00 in0.0 mm
02:00 AM 7.3°F-13.7°C -1.1°F-18.4°C 68% 2.3 mph E3.7 kmh E 3.5 mph5.6 kmh 29.85 in1010.8 mb - 0.00 in0.0 mm 0.00 in0.0 mm
01:30 AM 8.5°F-13.1°C 0.7°F-17.4°C 70% 4.6 mph SW7.4 kmh SW 11.5 mph18.5 kmh 29.82 in1009.8 mb - 0.00 in0.0 mm 0.00 in0.0 mm
01:00 AM 9.4°F-12.6°C 1.0°F-17.2°C 68% 8.1 mph ENE13.0 kmh ENE 20.7 mph33.3 kmh 29.81 in1009.5 mb - 0.00 in0.0 mm 0.00 in0.0 mm
12:30 AM 9.9°F-12.3°C 2.4°F-16.4°C 71% 9.2 mph NW14.8 kmh NW 12.7 mph20.4 kmh 29.78 in1008.5 mb - 0.00 in0.0 mm 0.00 in0.0 mm
12:00 AM 10.1°F-12.2°C 2.3°F-16.5°C 70% 4.6 mph E7.4 kmh E 13.8 mph22.2 kmh 29.78 in1008.5 mb - 0.00 in0.0 mm 0.00 in0.0 mm